Weather Models
Both GFS & NAM
00z 06z 12z 18z
24hr Precip
00z 06z 12z 18z
36hr Simulated radar
00z 06z 12z 18z
SKEWT Soundings
00z 12z
Current Conditions (Updated 4:50am on 3/26/19)
Temperature
 37°
-1.73
43°  
37°  
0
10
20
30
40
50
60
70
80
90
100
Dew Point
33°  
9°  
-20
-10
0
10
20
30
40
50
60
70
80
Wind Chill
32°
43°  
26°  
-20
-10
0
10
20
30
40
50
60
70
80
Wind Chill
Humidity
31%
67% 
31% 
0
10
20
30
40
50
60
70
80
90
100
Barometer
30.16
   Steady
30.16  
30.10  
28.00
28.30
28.60
28.90
29.20
29.50
29.80
30.10
30.40
30.70
31.00
Temperature
Dew Point
Humidity
Pressure
Wind
7mph
  N
Daily Rain
.00
.05
.10
.15
.20
.25
.30
.35
.40
.45
.50
Rain Today
 0.00" 
Month Rain
0.00
0.50
1.00
1.50
2.00
2.50
3.00
3.50
4.00
4.50
5.00
Month Rain
 4.47" 
Year Rain
0.00
2.50
5.00
7.50
10.00
12.50
15.00
17.50
20.00
22.50
25.00
Year Rain
 11.56" 
Sun & Moon Data
Sunrise 6:52am
Sunset 7:16pm
Moonrise 12:40am
Moonset 10:41am
Moon % 72%
Other Rain Data
Past Hour 0.00 Past 24 Hours 0.13
Past 3 Hours 0.00 Past 7 Days 1.51
Past 6 Hours 0.01
Cloud Height
6959


Current Front Map
Current Satellite map
7 Day Forecast
NWS Forecast for Philadelphia PA
National Weather Service Forecast for: Philadelphia PA
Issued by: National Weather Service Philadelphia, PA
Updated: 4:36 am EDT Mar 26, 2019

Philadelphia
 
Today

Today: Sunny, with a high near 48. North wind 10 to 14 mph.
Sunny
Tonight

Tonight: Clear, with a low around 29. North wind 5 to 8 mph.
Clear
Wednesday

Wednesday: Sunny, with a high near 52. North wind around 6 mph becoming light and variable  in the afternoon.
Sunny
Wednesday
Night
Wednesday Night: Mostly clear, with a low around 32. Southeast wind around 6 mph becoming calm  in the evening.
Mostly Clear
Thursday

Thursday: Sunny, with a high near 60. South wind 3 to 8 mph.
Sunny
Thursday
Night
Thursday Night: Partly cloudy, with a low around 45.
Partly Cloudy
Friday

Friday: Partly sunny, with a high near 68.
Partly Sunny
Friday
Night
Friday Night: Mostly cloudy, with a low around 50.
Mostly Cloudy
Saturday

Saturday: Partly sunny, with a high near 73.
Partly Sunny
Hi 48 °F Lo 29 °F Hi 52 °F Lo 32 °F Hi 60 °F Lo 45 °F Hi 68 °F Lo 50 °F Hi 73 °F

 

Today
 
Sunny, with a high near 48. North wind 10 to 14 mph.
Tonight
 
Clear, with a low around 29. North wind 5 to 8 mph.
Wednesday
 
Sunny, with a high near 52. North wind around 6 mph becoming light and variable in the afternoon.
Wednesday Night
 
Mostly clear, with a low around 32. Southeast wind around 6 mph becoming calm in the evening.
Thursday
 
Sunny, with a high near 60. South wind 3 to 8 mph.
Thursday Night
 
Partly cloudy, with a low around 45.
Friday
 
Partly sunny, with a high near 68.
Friday Night
 
Mostly cloudy, with a low around 50.
Saturday
 
Partly sunny, with a high near 73.
Saturday Night
 
A chance of showers after 2am. Mostly cloudy, with a low around 51. Chance of precipitation is 30%.
Sunday
 
A chance of showers. Mostly cloudy, with a high near 64. Chance of precipitation is 40%.
Sunday Night
 
A chance of showers. Mostly cloudy, with a low around 40. Chance of precipitation is 30%.
Monday
 
A chance of showers. Partly sunny, with a high near 55. Chance of precipitation is 30%.

 

Forecast from NOAA-NWS for Philadelphia PA.

Area Weather Current Conditions
Nearby METAR Reports

KPHL - Philadelphia, Pennsylvania
Updated: Tue, 26-Mar-2019 3:54am EDT
Partly Cloudy
Partly Cloudy
 Wind from NNE
Wind: NNE 16 mph , 26 km/h, Gust: 26 mph , 43 km/h
Temperature: 37°F , 3°C
Wind Chill: 28°F , -2°C
Dew Point: 12°F , -11°C
Humidity: 35%
Barometer: 30.13 inHg , 1020.3 hPa
Clouds: Partly Cloudy
Visibility: 10 miles , 16 km
Cloud details: Partly Cloudy 9500 ft
2019/03/26 07:54 KPHL 260754Z 02014G23KT 10SM SCT095 03/M11 A3013 RMK AO2 SLP202 T00331111 $
KMPO - Mt. Pocono, Pennsylvania
Updated: Tue, 26-Mar-2019 3:53am EDT
Clear
Clear
 Wind from NNW
Wind: NNW 17 mph , 28 km/h, Gust: 26 mph , 43 km/h
Temperature: 23°F , -5°C
Wind Chill: 9°F , -13°C
Dew Point: 1°F , -17°C
Humidity: 39%
Barometer: 30.06 inHg , 1017.9 hPa
Clouds: Clear
Visibility: 10 miles , 16 km
2019/03/26 07:53 KMPO 260753Z AUTO 34015G23KT 10SM CLR M05/M17 A3006 RMK AO2 SLP200 T10501172
 
KACY - Atlantic City, New Jersey
Updated: Tue, 26-Mar-2019 3:54am EDT
Mostly Cloudy
Mostly Cloudy
 Wind from N
Wind: N 12 mph , 19 km/h
Temperature: 39°F , 4°C
Wind Chill: 32°F , 0°C
Dew Point: 32°F , 0°C
Humidity: 75%
Barometer: 30.07 inHg , 1018.3 hPa
Clouds: Mostly Cloudy
Visibility: 10 miles , 16 km
Cloud details: Few Clouds 5500 ft
Mostly Cloudy 9500 ft
2019/03/26 07:54 KACY 260754Z 36010KT 10SM FEW055 BKN095 04/00 A3007 RMK AO2 SLP182 T00440000
KMIV - Millville, New Jersey
Updated: Tue, 26-Mar-2019 3:54am EDT
Overcast
Overcast
 Wind from N
Wind: N 10 mph , 17 km/h
Temperature: 41°F , 5°C
Wind Chill: 35°F , 2°C
Dew Point: 25°F , -4°C
Humidity: 53%
Barometer: 30.08 inHg , 1018.6 hPa
Clouds: Overcast
Visibility: 10 miles , 16 km
Cloud details: Mostly Cloudy 6500 ft
Overcast 9500 ft
2019/03/26 07:54 KMIV 260754Z AUTO 36009KT 10SM BKN065 OVC095 05/M04 A3008 RMK AO2 SLP183 T00501044
 
KWWD - Wildwood, New Jersey
Updated: Tue, 26-Mar-2019 3:55am EDT
Overcast
Overcast
 Wind from N
Wind: N 9 mph , 15 km/h
Temperature: 43°F , 6°C
Wind Chill: 38°F , 3°C
Dew Point: 34°F , 1°C
Humidity: 71%
Barometer: 30.07 inHg , 1018.3 hPa
Clouds: Overcast
Visibility: 10 miles , 16 km
Cloud details: Overcast 4700 ft
2019/03/26 07:55 KWWD 260755Z AUTO 36008KT 10SM OVC047 06/01 A3007 RMK AO2 SLP185 T00560006
KDOV - Dover Afb, Delaware
Updated: Tue, 26-Mar-2019 3:56am EDT
Overcast
Overcast
 Wind from N
Wind: N 17 mph , 28 km/h
Temperature: 41°F , 5°C
Wind Chill: 33°F , 1°C
Dew Point: 30°F , -1°C
Humidity: 66%
Barometer: 30.08 inHg , 1018.6 hPa
Clouds: Overcast
Visibility: 10 miles , 16 km
Cloud details: Overcast 5500 ft
2019/03/26 07:56 KDOV 260756Z AUTO 36015KT 10SM OVC055 05/M01 A3008 RMK AO2 SLP189 T00541007 $
Severe Weather Map